Terminal Aerodrome Forecast
Issued by NWS

Current Version | Previous Version | Text Only | Print | Product List | Glossary On
Versions: 1 2 3 4 5 6 7 8 9 10 11 12 13
910
FTUS45 KFGZ 300520
TAFSEZ
TAF
KSEZ 300520Z 3006/3106 02007KT P6SM FEW250
     FM301500 VRB06KT P6SM SCT250
     FM301800 18012G18KT P6SM SCT250
     FM302100 19022G32KT P6SM SCT200
     FM310200 23020G30KT P6SM FEW030 BKN080=

USA.gov is the U.S. government's official web portal to all federal, state and local government web resources and services.